EW9536 Santa Margarida De Montbui ES current weather conditions

sailwx.info

Wind from 045 at 12 knots gusting 22

Air temperature 8.9° C
Dewpoint 7.2° C

Last reported at 2020-Jan-21 20:05 UTC.
Time now 2020-Jan-22 14:17 UTC

Location: N 41°35' E 001°36'.
View on Google Maps.

See reports from other nearby stations

  
Tides and Currents Weather Stations Pressure Air Temp Water Temp Dewpoint Dewpoint Depression Visibility Wind Speed Wind Dir Waves Ship Positions
date/time (UTC)wind fromknots sea level pressurealtimeterstation pressurevisibilityair tempwater tempwave heightnotes
2020-Jan-21 20:05 045 12 gusting 22 8.9
2020-Jan-21 19:55 022 13 gusting 20 8.9
2020-Jan-21 19:45 045 11 gusting 21 8.9
2020-Jan-21 19:15 045 13 gusting 22 8.9
2020-Jan-21 19:05 045 12 gusting 21 8.9
2020-Jan-21 18:55 045 9 gusting 19 8.9
2020-Jan-21 18:45 045 13 gusting 23 8.9
2020-Jan-21 18:35 045 9 gusting 22 9.4
2020-Jan-21 18:25 045 14 gusting 20 9.4
2020-Jan-21 18:15 045 14 gusting 24 9.4
2020-Jan-21 18:05 045 14 gusting 23 9.4
2020-Jan-21 17:55 045 13 gusting 22 9.4
2020-Jan-21 17:45 045 12 gusting 19 9.4
2020-Jan-21 17:35 045 12 gusting 21 8.9
2020-Jan-21 17:25 045 9 gusting 17 8.9
2020-Jan-21 17:15 045 13 gusting 21 8.9
2020-Jan-21 17:05 045 9 gusting 16 8.9
2020-Jan-21 16:55 045 12 gusting 18 8.9
2020-Jan-21 16:45 045 13 gusting 21 8.9
2020-Jan-21 16:35 045 13 gusting 21 8.9
2020-Jan-21 16:25 045 12 gusting 21 8.9
2020-Jan-21 16:15 045 13 gusting 20 8.9
2020-Jan-21 16:05 045 12 gusting 19 8.9
2020-Jan-21 15:55 045 13 gusting 23 8.9
2020-Jan-21 15:45 045 14 gusting 24 8.9
2020-Jan-21 15:35 045 12 gusting 19 8.9
2020-Jan-21 15:25 045 12 gusting 19 8.9
2020-Jan-21 15:15 045 13 gusting 23 8.9
2020-Jan-21 15:05 045 13 gusting 22 8.9
2020-Jan-21 14:55 045 11 gusting 18 8.9
2020-Jan-21 14:45 045 13 gusting 20 8.9
2020-Jan-21 14:35 045 13 gusting 19 8.9
2020-Jan-21 14:25 022 13 gusting 20 8.9
2020-Jan-21 14:15 045 10 gusting 21 8.9
2020-Jan-21 14:05 022 13 gusting 19 8.9
2020-Jan-21 13:55 045 13 gusting 23 8.9
2020-Jan-21 13:45 045 13 gusting 23 8.9
2020-Jan-21 13:35 045 14 gusting 21 8.9
2020-Jan-21 13:25 022 12 gusting 21 8.9
2020-Jan-21 13:15 045 12 gusting 20 8.9
2020-Jan-21 13:05 022 13 gusting 20 8.3
2020-Jan-21 12:55 045 10 gusting 18 8.3
2020-Jan-21 12:45 045 9 gusting 18 8.3
2020-Jan-21 12:35 045 12 gusting 19 8.9
2020-Jan-21 12:25 045 14 gusting 22 8.3
2020-Jan-21 12:15 022 13 gusting 19 8.3
2020-Jan-21 12:05 022 15 gusting 24 8.3
2020-Jan-21 11:55 022 18 gusting 28 8.3
2020-Jan-21 11:45 022 14 gusting 23 8.3
2020-Jan-21 11:35 022 16 gusting 24 8.3
2020-Jan-21 11:25 022 14 gusting 22 8.3
2020-Jan-21 11:15 045 17 gusting 26 8.3
2020-Jan-21 11:05 045 13 gusting 21 8.3
2020-Jan-21 10:55 022 15 gusting 25 8.3
2020-Jan-21 10:45 022 14 gusting 22 7.8
2020-Jan-21 10:35 022 13 gusting 20 7.8
2020-Jan-21 10:25 045 14 gusting 22 7.8
2020-Jan-21 10:15 022 13 gusting 22 7.2
2020-Jan-21 10:05 022 13 gusting 20 7.2
2020-Jan-21 09:55 022 12 gusting 22 7.2
2020-Jan-21 09:45 022 17 gusting 28 7.2
2020-Jan-21 09:35 022 12 gusting 22 7.2
2020-Jan-21 09:25 022 13 gusting 25 7.2
2020-Jan-21 09:15 022 13 gusting 22 6.7
2020-Jan-21 09:05 022 12 gusting 17 6.7
2020-Jan-21 08:55 022 13 gusting 23 6.7
2020-Jan-21 08:45 022 18 gusting 31 6.7
2020-Jan-21 08:35 045 19 gusting 29 6.7
2020-Jan-21 08:25 022 14 gusting 24 6.7
2020-Jan-21 08:15 022 13 gusting 33 6.1
2020-Jan-21 08:05 022 12 gusting 23 6.1
2020-Jan-21 07:55 022 13 gusting 22 6.1
2020-Jan-21 07:45 022 12 gusting 21 6.1
2020-Jan-21 07:35 045 12 gusting 19 6.1
2020-Jan-21 07:25 045 13 gusting 25 6.1
2020-Jan-21 07:15 045 12 gusting 21 6.1
2020-Jan-21 07:05 045 12 gusting 21 6.1
2020-Jan-21 06:55 045 10 gusting 22 5.6
2020-Jan-21 06:45 022 12 gusting 21 5.6
2020-Jan-21 06:35 045 14 gusting 26 5.6
2020-Jan-21 06:25 022 13 gusting 22 5.6
2020-Jan-21 06:15 045 14 gusting 31 5.6
2020-Jan-21 06:05 022 11 gusting 25 5.6
2020-Jan-21 05:55 022 13 gusting 23 5.6
2020-Jan-21 05:45 022 13 gusting 23 5.0
2020-Jan-21 05:35 022 11 gusting 23 5.0
2020-Jan-21 05:25 022 12 gusting 24 5.0
2020-Jan-21 05:15 022 14 gusting 26 5.0
2020-Jan-21 05:05 045 11 gusting 19 5.0
2020-Jan-21 04:55 022 12 gusting 19 5.0
2020-Jan-21 04:45 022 15 gusting 25 5.0
2020-Jan-21 02:45 045 9 gusting 20 4.4
2020-Jan-21 02:35 045 9 gusting 17 4.4
2020-Jan-21 02:25 045 11 gusting 21 3.9
2020-Jan-21 01:35 067 8 gusting 16 5.0
2020-Jan-21 01:25 067 8 gusting 18 5.0
2020-Jan-21 01:15 045 7 gusting 21 5.0
2020-Jan-21 01:05 045 9 gusting 21 5.0
2020-Jan-21 00:55 045 11 gusting 25 5.0
2020-Jan-21 00:45 045 11 gusting 21 5.6
2020-Jan-21 00:35 045 12 gusting 29 5.6
2020-Jan-21 00:25 045 10 gusting 26 6.1
2020-Jan-21 00:15 045 15 gusting 29 6.7
2020-Jan-21 00:05 045 14 gusting 28 7.2
2020-Jan-20 23:55 045 10 gusting 20 7.2
2020-Jan-20 23:45 045 10 gusting 21 7.2
2020-Jan-20 23:35 045 7 gusting 15 6.7
2020-Jan-20 23:25 067 6 gusting 13 6.7
2020-Jan-20 23:15 067 10 gusting 15 6.7
2020-Jan-20 23:05 067 7 gusting 13 6.7
2020-Jan-20 22:55 045 9 gusting 18 6.7
2020-Jan-20 22:45 045 8 gusting 17 6.7
2020-Jan-20 22:35 045 11 gusting 19 6.7
2020-Jan-20 22:25 045 11 gusting 19 6.7
2020-Jan-20 22:15 045 11 gusting 22 6.7
2020-Jan-20 22:05 045 12 gusting 21 6.7
2020-Jan-20 21:55 045 12 gusting 26 6.7
2020-Jan-20 21:45 067 12 gusting 20 6.7
2020-Jan-20 21:35 045 9 gusting 20 6.7
2020-Jan-20 21:25 067 9 gusting 16 6.7
2020-Jan-20 21:15 045 7 gusting 16 6.7
2020-Jan-20 21:05 045 11 gusting 21 6.7
2020-Jan-20 20:55 067 11 gusting 19 6.7
2020-Jan-20 20:45 045 10 gusting 22 6.7
2020-Jan-20 20:35 067 8 gusting 17 6.7
2020-Jan-20 20:25 067 11 gusting 23 6.7
2020-Jan-20 20:15 045 13 gusting 23 6.7
2020-Jan-20 20:05 045 15 gusting 26 6.7
2020-Jan-20 19:55 045 13 gusting 25 6.7
2020-Jan-20 19:45 045 13 gusting 26 6.7
2020-Jan-20 19:35 045 12 gusting 20 6.7
2020-Jan-20 19:25 045 10 gusting 19 6.7
2020-Jan-20 19:15 045 12 gusting 23 6.7
2020-Jan-20 19:05 045 12 gusting 19 6.7
2020-Jan-20 18:55 045 13 gusting 20 6.7
2020-Jan-20 18:45 045 8 gusting 17 6.7
2020-Jan-20 18:35 045 12 gusting 19 6.7
2020-Jan-20 18:25 045 11 gusting 18 7.2
2020-Jan-20 18:15 045 11 gusting 19 7.2
2020-Jan-20 18:05 045 11 gusting 17 7.2
2020-Jan-20 17:55 045 9 gusting 16 7.2
2020-Jan-20 17:45 045 6 gusting 11 7.2
2020-Jan-20 17:35 045 8 gusting 18 7.2
2020-Jan-20 17:25 067 8 gusting 17 7.2
2020-Jan-20 17:15 045 7 gusting 16 7.2
2020-Jan-20 17:05 045 4 gusting 8 7.2
2020-Jan-20 16:55 045 8 gusting 14 7.2
2020-Jan-20 16:45 045 8 gusting 13 7.2
2020-Jan-20 16:35 045 7 gusting 13 7.2
2020-Jan-20 16:25 045 6 gusting 19 7.2
2020-Jan-20 16:15 045 6 gusting 11 7.2
2020-Jan-20 16:05 045 8 gusting 16 7.8
2020-Jan-20 15:55 045 9 gusting 16 7.8
2020-Jan-20 15:45 045 6 gusting 12 7.8
2020-Jan-20 15:35 045 12 gusting 21 7.8
2020-Jan-20 15:25 045 13 gusting 25 7.8
2020-Jan-20 15:15 045 12 gusting 22 7.8
2020-Jan-20 15:05 045 12 gusting 19 8.3
2020-Jan-20 14:55 045 11 gusting 17 8.3
2020-Jan-20 14:45 045 12 gusting 21 8.3
2020-Jan-20 14:35 045 10 gusting 25 8.3
2020-Jan-20 14:25 045 8 gusting 16 8.3
2020-Jan-20 14:15 045 9 gusting 20 8.3
2020-Jan-20 14:05 022 10 gusting 15 8.3